createdAt,value
2023-10-01T00:01:02.033Z,55.70
2023-10-01T00:03:29.022Z,55.80
2023-10-01T00:05:56.174Z,55.80
2023-10-01T00:08:23.462Z,55.80
2023-10-01T00:10:50.320Z,55.80
2023-10-01T00:13:17.497Z,55.80
2023-10-01T00:15:44.600Z,55.80
2023-10-01T00:18:11.608Z,55.80
2023-10-01T00:20:38.488Z,55.70
2023-10-01T00:23:05.548Z,55.70
2023-10-01T00:25:33.538Z,55.70
2023-10-01T00:28:01.141Z,55.80
2023-10-01T00:30:32.608Z,55.80
2023-10-01T00:33:00.456Z,55.80
2023-10-01T00:35:27.417Z,55.80
2023-10-01T00:37:54.732Z,55.70
2023-10-01T00:40:21.672Z,55.80
2023-10-01T00:42:48.634Z,55.80
2023-10-01T00:45:15.715Z,55.80
2023-10-01T00:47:44.430Z,55.80
2023-10-01T00:50:16.579Z,55.80
2023-10-01T00:52:44.319Z,55.80
2023-10-01T00:55:12.393Z,55.80
2023-10-01T00:57:39.824Z,55.80
2023-10-01T01:00:14.518Z,55.80
2023-10-01T01:02:58.060Z,55.80
2023-10-01T01:05:26.499Z,55.80
2023-10-01T01:07:53.412Z,55.80
2023-10-01T01:10:21.335Z,55.80
2023-10-01T01:12:55.388Z,55.80
2023-10-01T01:15:22.864Z,55.80
2023-10-01T01:17:52.163Z,55.80
2023-10-01T01:20:21.086Z,55.80
2023-10-01T01:22:52.927Z,55.80
2023-10-01T01:25:27.232Z,55.80
2023-10-01T01:27:54.436Z,55.80
2023-10-01T01:30:27.454Z,55.80
2023-10-01T01:32:54.517Z,55.80
2023-10-01T01:35:40.387Z,55.80
2023-10-01T01:38:08.525Z,55.80
2023-10-01T01:40:37.559Z,55.80
2023-10-01T01:43:16.932Z,55.80
2023-10-01T01:45:48.772Z,55.80
2023-10-01T01:48:30.795Z,55.80
2023-10-01T01:51:02.232Z,55.80
2023-10-01T01:53:37.527Z,55.80
2023-10-01T01:56:11.300Z,55.70
2023-10-01T01:58:41.692Z,55.80
2023-10-01T02:01:15.042Z,55.80
2023-10-01T02:03:47.726Z,55.80
2023-10-01T02:06:16.088Z,55.80
2023-10-01T02:08:55.439Z,55.80
2023-10-01T02:11:22.756Z,55.80
2023-10-01T02:13:52.319Z,55.80
2023-10-01T02:16:20.872Z,55.80
2023-10-01T02:18:57.816Z,55.80
2023-10-01T02:21:44.308Z,55.80
2023-10-01T02:24:15.898Z,55.70
2023-10-01T02:26:43.319Z,55.80
2023-10-01T02:29:17.408Z,55.80
2023-10-01T02:31:49.567Z,55.80
2023-10-01T02:34:19.252Z,55.80
2023-10-01T02:36:46.401Z,55.70
2023-10-01T02:39:22.388Z,55.70
2023-10-01T02:42:07.097Z,55.70
2023-10-01T02:44:41.128Z,55.80
2023-10-01T02:47:18.141Z,55.80
2023-10-01T02:49:55.280Z,55.80
2023-10-01T02:52:38.157Z,55.80
2023-10-01T02:55:18.293Z,55.80
2023-10-01T02:57:46.046Z,55.80
2023-10-01T03:00:13.588Z,55.80
2023-10-01T03:02:43.117Z,55.70
2023-10-01T03:05:19.502Z,55.70
2023-10-01T03:07:46.609Z,55.80
2023-10-01T03:10:15.569Z,55.70
2023-10-01T03:12:50.982Z,55.70
2023-10-01T03:15:28.545Z,55.70
2023-10-01T03:17:58.305Z,55.80
2023-10-01T03:20:39.505Z,55.70
2023-10-01T03:23:26.154Z,55.80
2023-10-01T03:25:58.733Z,55.70
2023-10-01T03:28:29.827Z,55.70
2023-10-01T03:31:11.038Z,55.70
2023-10-01T03:33:41.853Z,55.70
2023-10-01T03:36:13.276Z,55.70
2023-10-01T03:38:40.763Z,55.70
2023-10-01T03:41:09.782Z,55.80
2023-10-01T03:43:37.586Z,55.70
2023-10-01T03:46:15.380Z,55.70
2023-10-01T03:49:00.454Z,55.80
2023-10-01T03:51:54.012Z,55.70
2023-10-01T03:54:22.452Z,55.80
2023-10-01T03:56:58.723Z,55.70
2023-10-01T03:59:33.857Z,55.70
2023-10-01T04:02:01.016Z,55.70
2023-10-01T04:04:29.604Z,55.70
2023-10-01T04:06:57.628Z,55.80
2023-10-01T04:09:27.408Z,55.80
2023-10-01T04:12:15.230Z,55.70
2023-10-01T04:14:50.057Z,55.80
2023-10-01T04:17:20.319Z,55.80
2023-10-01T04:19:58.318Z,55.70
2023-10-01T04:22:27.100Z,55.80
2023-10-01T04:25:04.735Z,55.70
2023-10-01T04:27:35.801Z,55.80
2023-10-01T04:30:12.311Z,55.80
2023-10-01T04:32:40.421Z,55.70
2023-10-01T04:35:17.628Z,55.80
2023-10-01T04:37:49.094Z,55.70
2023-10-01T04:40:34.000Z,55.80
2023-10-01T04:43:11.740Z,55.80
2023-10-01T04:45:42.057Z,55.70
2023-10-01T04:48:17.318Z,55.70
2023-10-01T04:50:47.601Z,55.70
2023-10-01T04:53:14.756Z,55.70
2023-10-01T04:55:42.928Z,55.70
2023-10-01T04:58:16.959Z,55.80
2023-10-01T05:00:48.106Z,55.80
2023-10-01T05:03:17.882Z,55.70
2023-10-01T05:05:45.067Z,55.70
2023-10-01T05:08:15.125Z,55.70
2023-10-01T05:10:54.498Z,55.70
2023-10-01T05:13:23.719Z,55.70
2023-10-01T05:15:54.268Z,55.70
2023-10-01T05:18:21.122Z,55.70
2023-10-01T05:20:50.032Z,55.70
2023-10-01T05:23:21.916Z,55.70
2023-10-01T05:25:48.575Z,55.70
2023-10-01T05:28:24.800Z,55.70
2023-10-01T05:30:59.078Z,55.70
2023-10-01T05:33:26.755Z,55.70
2023-10-01T05:35:58.679Z,55.70
2023-10-01T05:38:27.957Z,55.70
2023-10-01T05:40:58.153Z,55.70
2023-10-01T05:43:28.822Z,55.70
2023-10-01T05:46:02.675Z,55.70
2023-10-01T05:48:30.785Z,55.70
2023-10-01T05:50:59.886Z,55.70
2023-10-01T05:53:27.044Z,55.70
2023-10-01T05:55:54.056Z,55.70
2023-10-01T05:58:23.827Z,55.70
2023-10-01T06:01:06.849Z,55.70
2023-10-01T06:03:35.329Z,55.70
2023-10-01T06:06:10.152Z,55.70
2023-10-01T06:08:47.427Z,55.70
2023-10-01T06:11:17.105Z,55.70
2023-10-01T06:13:53.025Z,55.70
2023-10-01T06:16:26.133Z,55.70
2023-10-01T06:19:01.538Z,55.70
2023-10-01T06:21:33.230Z,55.70
2023-10-01T06:24:05.720Z,55.70
2023-10-01T06:26:47.355Z,55.70
2023-10-01T06:29:17.671Z,55.70
2023-10-01T06:31:50.990Z,55.70
2023-10-01T06:34:22.574Z,55.60
2023-10-01T06:36:52.728Z,55.70
2023-10-01T06:39:24.646Z,55.70
2023-10-01T06:41:53.582Z,55.60
2023-10-01T06:44:23.481Z,55.60
2023-10-01T06:46:50.502Z,55.70
2023-10-01T06:49:19.996Z,55.70
2023-10-01T06:51:46.861Z,55.70
2023-10-01T06:54:14.430Z,55.60
2023-10-01T06:56:48.954Z,55.60
2023-10-01T06:59:18.306Z,55.60
2023-10-01T07:01:49.408Z,55.70
2023-10-01T07:04:25.020Z,55.60
2023-10-01T07:06:52.408Z,55.70
2023-10-01T07:09:28.322Z,55.70
2023-10-01T07:11:57.546Z,55.70
2023-10-01T07:14:51.604Z,55.80
2023-10-01T07:17:24.753Z,56.00
2023-10-01T07:20:01.821Z,55.90
2023-10-01T07:22:32.921Z,55.80
2023-10-01T07:25:26.456Z,55.80
2023-10-01T07:27:53.225Z,55.80
2023-10-01T07:30:19.974Z,55.80
2023-10-01T07:32:46.684Z,55.80
2023-10-01T07:35:15.135Z,55.80
2023-10-01T07:37:42.742Z,55.80
2023-10-01T07:40:10.748Z,55.80
2023-10-01T07:42:55.768Z,55.80
2023-10-01T07:45:22.968Z,55.80
2023-10-01T07:47:49.677Z,55.70
2023-10-01T07:50:18.332Z,55.70
2023-10-01T07:52:45.873Z,55.70
2023-10-01T07:55:31.662Z,55.70
2023-10-01T07:58:18.908Z,55.60
2023-10-01T08:00:45.686Z,55.60
2023-10-01T08:03:21.739Z,55.60
2023-10-01T08:05:51.894Z,55.60
2023-10-01T08:08:36.823Z,55.60
2023-10-01T08:11:04.470Z,55.50
2023-10-01T08:13:32.140Z,55.00
2023-10-01T08:15:59.754Z,54.00
2023-10-01T08:18:36.908Z,53.70
2023-10-01T08:21:05.209Z,54.00
2023-10-01T08:23:34.651Z,54.50
2023-10-01T08:26:22.582Z,54.70
2023-10-01T08:29:01.529Z,55.00
2023-10-01T08:32:04.793Z,55.10
2023-10-01T08:34:51.986Z,55.20
2023-10-01T08:37:23.917Z,55.20
2023-10-01T08:39:54.691Z,55.20
2023-10-01T08:42:23.558Z,55.30
2023-10-01T08:44:52.235Z,55.20
2023-10-01T08:47:32.852Z,55.20
2023-10-01T08:50:18.823Z,55.20
2023-10-01T08:52:58.884Z,55.30
2023-10-01T08:55:48.142Z,55.20
2023-10-01T08:58:17.211Z,55.20
2023-10-01T09:00:50.090Z,55.20
2023-10-01T09:03:38.168Z,55.20
2023-10-01T09:06:07.286Z,55.10
2023-10-01T09:08:44.411Z,55.10
2023-10-01T09:11:16.395Z,55.00
2023-10-01T09:14:16.028Z,55.00
2023-10-01T09:16:44.602Z,55.00
2023-10-01T09:19:32.049Z,54.90
2023-10-01T09:22:17.200Z,55.00
2023-10-01T09:24:56.451Z,55.00
2023-10-01T09:27:29.414Z,55.00
2023-10-01T09:30:26.419Z,55.00
2023-10-01T09:32:58.265Z,55.00
2023-10-01T09:35:40.480Z,55.00
2023-10-01T09:38:12.856Z,55.00
2023-10-01T09:40:43.569Z,55.10
2023-10-01T09:43:25.921Z,55.00
2023-10-01T09:45:53.770Z,55.00
2023-10-01T09:48:31.587Z,55.00
2023-10-01T09:51:16.113Z,55.00
2023-10-01T09:53:52.264Z,55.10
2023-10-01T09:56:44.402Z,55.20
2023-10-01T09:59:12.696Z,55.20
2023-10-01T10:01:41.146Z,55.30
2023-10-01T10:04:12.008Z,55.50
2023-10-01T10:06:40.685Z,55.30
2023-10-01T10:09:27.121Z,55.30
2023-10-01T10:11:54.958Z,55.30
2023-10-01T10:14:27.845Z,55.20
2023-10-01T10:17:20.173Z,55.20
2023-10-01T10:20:01.704Z,55.10
2023-10-01T10:22:33.320Z,55.10
2023-10-01T10:25:27.104Z,55.10
2023-10-01T10:27:54.119Z,55.10
2023-10-01T10:30:23.558Z,55.00
2023-10-01T10:33:20.820Z,55.00
2023-10-01T10:35:53.473Z,55.00
2023-10-01T10:38:54.703Z,54.90
2023-10-01T10:41:26.593Z,54.80
2023-10-01T10:44:09.879Z,54.80
2023-10-01T10:47:02.031Z,54.80
2023-10-01T10:49:54.168Z,54.90
2023-10-01T10:52:34.089Z,54.80
2023-10-01T10:55:17.648Z,54.70
2023-10-01T10:57:50.753Z,54.80
2023-10-01T11:00:29.301Z,54.80
2023-10-01T11:02:58.575Z,54.80
2023-10-01T11:05:30.470Z,54.90
2023-10-01T11:08:00.318Z,54.90
2023-10-01T11:10:30.705Z,54.80
2023-10-01T11:12:57.438Z,54.80
2023-10-01T11:15:36.061Z,54.80
2023-10-01T11:18:03.011Z,54.80
2023-10-01T11:20:34.019Z,54.80
2023-10-01T11:23:00.984Z,54.80
2023-10-01T11:25:27.809Z,54.80
2023-10-01T11:28:07.364Z,54.90
2023-10-01T11:30:35.855Z,54.90
2023-10-01T11:33:04.992Z,54.90
2023-10-01T11:35:33.882Z,54.80
2023-10-01T11:38:08.341Z,54.80
2023-10-01T11:40:55.190Z,54.80
2023-10-01T11:43:29.437Z,54.70
2023-10-01T11:46:26.261Z,54.70
2023-10-01T11:49:00.449Z,54.70
2023-10-01T11:51:33.956Z,54.70
2023-10-01T11:54:10.701Z,54.70
2023-10-01T11:56:48.739Z,54.70
2023-10-01T11:59:19.701Z,54.70
2023-10-01T12:01:52.875Z,54.60
2023-10-01T12:04:45.718Z,54.60
2023-10-01T12:07:17.823Z,54.50
2023-10-01T12:09:54.102Z,54.50
2023-10-01T12:12:38.229Z,54.50
2023-10-01T12:15:25.485Z,54.50
2023-10-01T12:17:53.080Z,54.50
2023-10-01T12:20:31.814Z,54.50
2023-10-01T12:23:14.748Z,54.40
2023-10-01T12:26:21.421Z,54.40
2023-10-01T12:29:06.886Z,54.40
2023-10-01T12:31:34.990Z,54.40
2023-10-01T12:34:01.817Z,54.30
2023-10-01T12:36:43.431Z,54.40
2023-10-01T12:39:10.997Z,54.30
2023-10-01T12:41:55.475Z,54.40
2023-10-01T12:44:29.238Z,54.30
2023-10-01T12:46:57.033Z,54.30
2023-10-01T12:49:23.838Z,54.30
2023-10-01T12:51:54.650Z,54.30
2023-10-01T12:54:27.131Z,54.20
2023-10-01T12:57:26.670Z,54.30
2023-10-01T13:00:12.277Z,54.30
2023-10-01T13:02:46.963Z,54.30
2023-10-01T13:05:28.877Z,54.40
2023-10-01T13:07:57.970Z,54.30
2023-10-01T13:10:38.928Z,54.30
2023-10-01T13:13:07.275Z,54.30
2023-10-01T13:15:43.558Z,54.30
2023-10-01T13:18:17.916Z,54.30
2023-10-01T13:21:00.080Z,54.30
2023-10-01T13:23:29.930Z,54.20
2023-10-01T13:26:15.977Z,54.20
2023-10-01T13:28:57.811Z,54.30
2023-10-01T13:31:31.168Z,54.30
2023-10-01T13:34:21.571Z,54.30
2023-10-01T13:36:52.498Z,54.10
2023-10-01T13:39:26.134Z,54.10
2023-10-01T13:42:15.669Z,54.20
2023-10-01T13:45:00.980Z,54.10
2023-10-01T13:47:46.586Z,54.00
2023-10-01T13:50:31.817Z,54.00
2023-10-01T13:53:17.289Z,54.00
2023-10-01T13:56:07.085Z,54.00
2023-10-01T13:58:54.668Z,54.00
2023-10-01T14:01:40.575Z,54.00
2023-10-01T14:04:27.381Z,54.00
2023-10-01T14:07:13.152Z,54.10
2023-10-01T14:09:49.788Z,54.00
2023-10-01T14:12:42.803Z,54.00
2023-10-01T14:15:27.786Z,54.10
2023-10-01T14:17:56.625Z,54.00
2023-10-01T14:20:57.981Z,53.90
2023-10-01T14:23:28.104Z,54.00
2023-10-01T14:26:11.692Z,53.90
2023-10-01T14:28:39.635Z,53.90
2023-10-01T14:31:07.293Z,54.00
2023-10-01T14:33:35.641Z,53.90
2023-10-01T14:36:05.772Z,53.80
2023-10-01T14:38:42.254Z,53.80
2023-10-01T14:41:16.949Z,53.80
2023-10-01T14:43:54.653Z,53.90
2023-10-01T14:46:32.162Z,53.90
2023-10-01T14:49:22.179Z,53.90
2023-10-01T14:51:55.193Z,53.90
2023-10-01T14:54:22.108Z,53.80
2023-10-01T14:56:58.356Z,53.90
2023-10-01T14:59:31.753Z,53.90
2023-10-01T15:01:59.820Z,53.90
2023-10-01T15:04:31.048Z,53.90
2023-10-01T15:06:58.711Z,53.90
2023-10-01T15:09:29.809Z,54.00
2023-10-01T15:11:58.623Z,54.00
2023-10-01T15:14:29.747Z,53.90
2023-10-01T15:17:09.415Z,54.00
2023-10-01T15:19:48.660Z,54.00
2023-10-01T15:22:18.635Z,54.00
2023-10-01T15:24:47.130Z,53.90
2023-10-01T15:27:14.835Z,53.90
2023-10-01T15:29:43.808Z,53.90
2023-10-01T15:32:18.049Z,53.90
2023-10-01T15:34:45.600Z,54.00
2023-10-01T15:37:16.194Z,54.10
2023-10-01T15:39:43.474Z,54.10
2023-10-01T15:42:15.777Z,54.10
2023-10-01T15:44:49.978Z,54.10
2023-10-01T15:47:33.187Z,54.10
2023-10-01T15:50:08.793Z,54.20
2023-10-01T15:52:39.320Z,54.10
2023-10-01T15:55:07.212Z,54.30
2023-10-01T15:57:37.730Z,54.40
2023-10-01T16:00:24.601Z,54.30
2023-10-01T16:02:52.126Z,54.30
2023-10-01T16:05:19.014Z,54.30
2023-10-01T16:07:45.789Z,54.30
2023-10-01T16:10:13.137Z,54.40
2023-10-01T16:12:40.501Z,54.40
2023-10-01T16:15:11.330Z,54.50
2023-10-01T16:17:41.794Z,54.60
2023-10-01T16:20:20.005Z,54.60
2023-10-01T16:22:51.090Z,54.60
2023-10-01T16:25:19.373Z,54.80
2023-10-01T16:27:46.064Z,54.80
2023-10-01T16:30:20.715Z,54.90
2023-10-01T16:32:51.219Z,55.00
2023-10-01T16:35:22.289Z,55.10
2023-10-01T16:37:50.320Z,55.00
2023-10-01T16:40:25.793Z,55.00
2023-10-01T16:42:54.856Z,55.00
2023-10-01T16:45:31.079Z,55.10
2023-10-01T16:48:04.571Z,55.10
2023-10-01T16:50:57.308Z,55.10
2023-10-01T16:53:26.000Z,55.10
2023-10-01T16:55:54.658Z,55.10
2023-10-01T16:58:33.640Z,55.10
2023-10-01T17:01:27.118Z,55.10
2023-10-01T17:04:03.700Z,55.20
2023-10-01T17:06:50.506Z,55.20
2023-10-01T17:09:36.860Z,55.20
2023-10-01T17:12:05.245Z,55.30
2023-10-01T17:14:32.546Z,55.40
2023-10-01T17:17:02.173Z,55.50
2023-10-01T17:19:34.622Z,55.50
2023-10-01T17:22:10.059Z,55.50
2023-10-01T17:24:44.847Z,55.40
2023-10-01T17:27:17.648Z,55.50
2023-10-01T17:29:45.969Z,55.50
2023-10-01T17:32:20.244Z,55.50
2023-10-01T17:34:47.820Z,55.60
2023-10-01T17:37:22.351Z,55.60
2023-10-01T17:39:56.053Z,55.70
2023-10-01T17:42:23.497Z,55.70
2023-10-01T17:44:51.342Z,55.70
2023-10-01T17:47:21.771Z,55.70
2023-10-01T17:49:55.668Z,55.70
2023-10-01T17:52:32.390Z,55.70
2023-10-01T17:55:03.028Z,55.70
2023-10-01T17:57:45.034Z,55.70
2023-10-01T18:00:13.682Z,55.70
2023-10-01T18:02:43.083Z,55.80
2023-10-01T18:05:21.709Z,55.80
2023-10-01T18:08:04.286Z,55.80
2023-10-01T18:10:41.064Z,55.80
2023-10-01T18:13:16.600Z,55.90
2023-10-01T18:15:50.816Z,56.00
2023-10-01T18:18:24.772Z,56.10
2023-10-01T18:20:54.236Z,56.10
2023-10-01T18:23:21.771Z,56.10
2023-10-01T18:25:54.992Z,56.10
2023-10-01T18:28:30.248Z,56.10
2023-10-01T18:30:58.836Z,56.00
2023-10-01T18:33:30.213Z,56.10
2023-10-01T18:35:59.348Z,56.00
2023-10-01T18:38:27.843Z,56.10
2023-10-01T18:40:55.449Z,56.20
2023-10-01T18:43:23.685Z,56.20
2023-10-01T18:46:00.845Z,56.40
2023-10-01T18:48:39.899Z,56.30
2023-10-01T18:51:15.488Z,56.30
2023-10-01T18:53:43.353Z,56.40
2023-10-01T18:56:11.379Z,56.60
2023-10-01T18:58:39.864Z,56.50
2023-10-01T19:01:07.084Z,56.50
2023-10-01T19:03:35.429Z,56.70
2023-10-01T19:06:03.281Z,56.50
2023-10-01T19:08:32.012Z,56.40
2023-10-01T19:11:03.388Z,56.50
2023-10-01T19:13:32.174Z,56.50
2023-10-01T19:16:03.331Z,56.50
2023-10-01T19:18:30.937Z,56.50
2023-10-01T19:21:03.730Z,56.80
2023-10-01T19:23:34.983Z,57.10
2023-10-01T19:26:04.674Z,57.00
2023-10-01T19:28:33.062Z,56.80
2023-10-01T19:31:01.071Z,57.10
2023-10-01T19:33:29.021Z,57.00
2023-10-01T19:35:58.572Z,57.20
2023-10-01T19:38:25.272Z,57.00
2023-10-01T19:40:52.879Z,57.00
2023-10-01T19:43:27.579Z,57.20
2023-10-01T19:45:54.996Z,57.10
2023-10-01T19:48:23.305Z,57.00
2023-10-01T19:50:51.267Z,57.10
2023-10-01T19:53:23.582Z,57.20
2023-10-01T19:55:59.730Z,57.50
2023-10-01T19:58:32.426Z,57.60
2023-10-01T20:01:08.322Z,58.00
2023-10-01T20:03:36.085Z,57.80
2023-10-01T20:06:06.776Z,57.80
2023-10-01T20:08:40.794Z,57.80
2023-10-01T20:11:13.530Z,57.90
2023-10-01T20:13:41.605Z,57.90
2023-10-01T20:16:12.355Z,57.70
2023-10-01T20:18:39.658Z,57.70
2023-10-01T20:21:20.027Z,57.90
2023-10-01T20:23:47.620Z,57.70
2023-10-01T20:26:21.006Z,57.60
2023-10-01T20:28:51.692Z,57.50
2023-10-01T20:31:21.726Z,57.60
2023-10-01T20:33:54.793Z,57.40
2023-10-01T20:36:28.854Z,57.50
2023-10-01T20:38:58.364Z,57.70
2023-10-01T20:41:25.653Z,57.50
2023-10-01T20:43:56.648Z,57.50
2023-10-01T20:49:00.498Z,57.20
2023-10-01T20:51:35.553Z,57.20
2023-10-01T20:54:04.360Z,57.20
2023-10-01T20:56:33.430Z,57.30
2023-10-01T20:59:01.468Z,57.20
2023-10-01T21:01:39.199Z,57.30
2023-10-01T21:04:23.754Z,57.30
2023-10-01T21:06:52.868Z,57.30
2023-10-01T21:09:23.945Z,57.30
2023-10-01T21:12:01.907Z,57.60
2023-10-01T21:14:36.324Z,57.30
2023-10-01T21:17:06.717Z,57.30
2023-10-01T21:19:45.681Z,57.30
2023-10-01T21:22:14.128Z,57.40
2023-10-01T21:24:43.672Z,57.30
2023-10-01T21:27:12.862Z,57.30
2023-10-01T21:29:46.415Z,57.30
2023-10-01T21:32:18.225Z,57.30
2023-10-01T21:34:48.160Z,57.40
2023-10-01T21:37:19.808Z,57.30
2023-10-01T21:39:48.951Z,57.30
2023-10-01T21:42:25.835Z,57.30
2023-10-01T21:44:53.957Z,57.40
2023-10-01T21:47:20.994Z,57.30
2023-10-01T21:49:49.311Z,57.30
2023-10-01T21:52:17.562Z,57.30
2023-10-01T21:54:53.484Z,57.40
2023-10-01T21:57:20.599Z,57.80
2023-10-01T21:59:48.002Z,57.70
2023-10-01T22:02:20.279Z,57.80
2023-10-01T22:04:58.081Z,58.20
2023-10-01T22:07:25.253Z,58.00
2023-10-01T22:09:54.082Z,57.70
2023-10-01T22:12:23.279Z,57.70
2023-10-01T22:14:52.440Z,57.60
2023-10-01T22:17:38.992Z,57.60
2023-10-01T22:20:17.381Z,57.70
2023-10-01T22:22:51.307Z,57.70
2023-10-01T22:25:18.546Z,57.70
2023-10-01T22:27:46.246Z,57.80
2023-10-01T22:30:16.585Z,58.10
2023-10-01T22:32:51.095Z,57.90
2023-10-01T22:35:26.089Z,57.90
2023-10-01T22:38:01.754Z,57.90
2023-10-01T22:40:48.874Z,57.90
2023-10-01T22:43:21.345Z,58.00
2023-10-01T22:46:09.001Z,58.00
2023-10-01T22:48:45.918Z,58.00
2023-10-01T22:51:25.652Z,58.00
2023-10-01T22:54:00.880Z,58.00
2023-10-01T22:56:29.971Z,58.10
2023-10-01T22:59:05.979Z,58.20
2023-10-01T23:01:35.471Z,58.10
2023-10-01T23:04:12.033Z,58.10
2023-10-01T23:06:44.074Z,58.20
2023-10-01T23:09:18.852Z,58.20
2023-10-01T23:11:46.326Z,58.10
2023-10-01T23:14:16.712Z,58.20
2023-10-01T23:16:47.776Z,58.20
2023-10-01T23:19:34.116Z,58.20
2023-10-01T23:22:05.949Z,58.20
2023-10-01T23:24:42.834Z,58.20
2023-10-01T23:27:13.472Z,58.20
2023-10-01T23:29:46.019Z,58.20
2023-10-01T23:32:35.079Z,58.20
2023-10-01T23:35:03.426Z,58.20
2023-10-01T23:37:39.447Z,58.20
2023-10-01T23:40:11.785Z,58.20
2023-10-01T23:42:46.283Z,58.20
2023-10-01T23:45:17.673Z,58.20
2023-10-01T23:47:45.495Z,58.20
2023-10-01T23:50:38.494Z,58.30
2023-10-01T23:53:19.403Z,58.20
2023-10-01T23:55:54.626Z,58.20
2023-10-01T23:58:22.919Z,58.20
